createdAt,value
2022-12-17T00:01:46.696Z,25.70
2022-12-17T00:05:27.665Z,28.77
2022-12-17T00:09:08.093Z,21.73
2022-12-17T00:12:49.278Z,24.37
2022-12-17T00:16:29.594Z,31.60
2022-12-17T00:20:09.701Z,25.53
2022-12-17T00:23:50.066Z,31.43
2022-12-17T00:27:30.669Z,28.97
2022-12-17T00:31:11.565Z,32.13
2022-12-17T00:34:53.728Z,28.17
2022-12-17T00:38:38.549Z,40.57
2022-12-17T00:42:19.162Z,31.53
2022-12-17T00:45:59.312Z,40.90
2022-12-17T00:49:40.118Z,32.17
2022-12-17T00:53:20.437Z,40.37
2022-12-17T00:57:00.936Z,40.30
2022-12-17T01:00:41.400Z,41.03
2022-12-17T01:04:22.154Z,44.60
2022-12-17T01:08:03.986Z,31.93
2022-12-17T01:11:44.606Z,24.33
2022-12-17T01:15:26.501Z,25.93
2022-12-17T01:19:08.401Z,31.10
2022-12-17T01:22:50.618Z,28.50
2022-12-17T01:26:32.352Z,22.73
2022-12-17T01:30:12.772Z,21.87
2022-12-17T01:33:54.047Z,22.70
2022-12-17T01:37:34.820Z,21.07
2022-12-17T01:41:27.947Z,21.27
2022-12-17T01:45:13.758Z,14.13
2022-12-17T01:49:06.563Z,26.00
2022-12-17T01:52:46.879Z,16.87
2022-12-17T01:56:30.678Z,22.00
2022-12-17T02:00:28.709Z,19.97
2022-12-17T02:04:09.948Z,21.97
2022-12-17T02:08:29.266Z,17.83
2022-12-17T02:12:47.160Z,16.77
2022-12-17T02:16:45.727Z,22.43
2022-12-17T02:20:41.247Z,16.40
2022-12-17T02:24:33.200Z,18.80
2022-12-17T02:28:15.564Z,17.03
2022-12-17T02:32:00.126Z,23.50
2022-12-17T02:35:53.484Z,30.00
2022-12-17T02:39:40.582Z,20.77
2022-12-17T02:43:22.449Z,21.37
2022-12-17T02:47:04.866Z,23.50
2022-12-17T02:50:47.484Z,21.83
2022-12-17T02:54:38.216Z,23.23
2022-12-17T02:58:18.881Z,22.63
2022-12-17T03:01:59.469Z,21.83
2022-12-17T03:05:51.047Z,25.53
2022-12-17T03:09:40.714Z,29.87
2022-12-17T03:13:22.413Z,33.27
2022-12-17T03:17:10.912Z,19.93
2022-12-17T03:20:51.372Z,27.53
2022-12-17T03:24:54.748Z,23.37
2022-12-17T03:28:44.171Z,25.87
2022-12-17T03:32:24.625Z,19.33
2022-12-17T03:36:05.167Z,23.57
2022-12-17T03:39:51.165Z,23.60
2022-12-17T03:43:31.345Z,25.33
2022-12-17T03:47:11.810Z,23.60
2022-12-17T03:50:53.239Z,26.43
2022-12-17T03:54:40.786Z,23.17
2022-12-17T03:58:23.013Z,25.93
2022-12-17T04:02:03.485Z,29.37
2022-12-17T04:05:49.752Z,29.50
2022-12-17T04:09:31.195Z,30.60
2022-12-17T04:13:16.555Z,30.13
2022-12-17T04:16:58.747Z,36.13
2022-12-17T04:20:39.258Z,21.67
2022-12-17T04:24:19.811Z,26.97
2022-12-17T04:28:00.511Z,26.07
2022-12-17T04:31:41.277Z,33.60
2022-12-17T04:35:35.781Z,23.60
2022-12-17T04:39:16.248Z,22.97
2022-12-17T04:42:56.785Z,21.93
2022-12-17T04:46:37.168Z,27.53
2022-12-17T04:50:18.536Z,23.37
2022-12-17T04:53:59.170Z,22.07
2022-12-17T04:57:39.661Z,25.00
2022-12-17T05:01:19.974Z,19.10
2022-12-17T05:05:01.166Z,21.93
2022-12-17T05:08:42.707Z,18.60
2022-12-17T05:12:23.304Z,21.23
2022-12-17T05:16:04.109Z,25.23
2022-12-17T05:19:49.748Z,22.13
2022-12-17T05:23:34.466Z,26.33
2022-12-17T05:27:17.116Z,19.83
2022-12-17T05:31:01.212Z,26.13
2022-12-17T05:34:41.850Z,28.23
2022-12-17T05:38:28.733Z,28.07
2022-12-17T05:42:08.978Z,22.50
2022-12-17T05:45:49.390Z,24.00
2022-12-17T05:49:33.139Z,25.77
2022-12-17T05:53:21.788Z,19.17
2022-12-17T05:57:02.263Z,27.93
2022-12-17T06:00:43.165Z,27.17
2022-12-17T06:04:29.056Z,29.27
2022-12-17T06:08:26.126Z,17.53
2022-12-17T06:12:06.468Z,19.77
2022-12-17T06:15:46.876Z,16.93
2022-12-17T06:19:27.596Z,16.07
2022-12-17T06:23:29.217Z,24.93
2022-12-17T06:27:10.326Z,12.07
2022-12-17T06:30:51.428Z,16.83
2022-12-17T06:34:31.799Z,22.17
2022-12-17T06:38:25.508Z,19.83
2022-12-17T06:42:05.912Z,22.63
2022-12-17T06:45:46.505Z,22.90
2022-12-17T06:49:27.787Z,21.63
2022-12-17T06:53:21.573Z,29.43
2022-12-17T06:57:02.245Z,25.73
2022-12-17T07:00:43.745Z,19.67
2022-12-17T07:04:26.626Z,27.73
2022-12-17T07:08:07.871Z,36.23
2022-12-17T07:11:48.291Z,27.97
2022-12-17T07:15:29.234Z,24.57
2022-12-17T07:19:10.589Z,30.27
2022-12-17T07:22:50.915Z,23.17
2022-12-17T07:26:33.154Z,32.50
2022-12-17T07:30:41.668Z,24.20
2022-12-17T07:34:22.001Z,28.37
2022-12-17T07:38:02.358Z,28.03
2022-12-17T07:41:43.077Z,25.10
2022-12-17T07:45:24.816Z,27.50
2022-12-17T07:49:06.517Z,21.10
2022-12-17T07:52:46.581Z,42.07
2022-12-17T07:56:35.465Z,33.33
2022-12-17T08:00:20.163Z,25.20
2022-12-17T08:04:01.927Z,35.63
2022-12-17T08:08:05.404Z,27.73
2022-12-17T08:11:45.625Z,28.30
2022-12-17T08:15:35.398Z,28.40
2022-12-17T08:19:15.702Z,28.10
2022-12-17T08:22:58.699Z,23.00
2022-12-17T08:26:42.046Z,23.57
2022-12-17T08:30:26.376Z,26.87
2022-12-17T08:34:08.368Z,25.47
2022-12-17T08:37:52.899Z,28.30
2022-12-17T08:41:38.310Z,41.77
2022-12-17T08:45:32.032Z,26.03
2022-12-17T08:49:13.865Z,16.37
2022-12-17T08:52:54.035Z,29.67
2022-12-17T08:56:34.204Z,25.23
2022-12-17T09:00:16.395Z,18.73
2022-12-17T09:03:56.864Z,30.40
2022-12-17T09:07:37.711Z,26.47
2022-12-17T09:11:19.259Z,24.60
2022-12-17T09:14:59.775Z,21.63
2022-12-17T09:18:51.315Z,21.73
2022-12-17T09:22:35.202Z,27.57
2022-12-17T09:26:16.198Z,33.87
2022-12-17T09:29:56.717Z,28.67
2022-12-17T09:33:38.105Z,23.73
2022-12-17T09:37:18.764Z,25.23
2022-12-17T09:41:06.947Z,27.97
2022-12-17T09:45:39.149Z,26.70
2022-12-17T09:49:44.516Z,37.90
2022-12-17T09:53:41.135Z,26.93
2022-12-17T09:57:24.749Z,27.17
2022-12-17T10:01:08.495Z,30.20
2022-12-17T10:05:24.426Z,32.30
2022-12-17T10:09:12.608Z,28.47
2022-12-17T10:12:52.997Z,32.30
2022-12-17T10:16:52.102Z,37.50
2022-12-17T10:20:48.542Z,31.37
2022-12-17T10:24:30.069Z,36.40
2022-12-17T10:28:10.690Z,37.77
2022-12-17T10:31:51.811Z,39.33
2022-12-17T10:35:45.069Z,35.10
2022-12-17T10:39:44.940Z,42.47
2022-12-17T10:43:44.387Z,40.07
2022-12-17T10:47:32.179Z,32.57
2022-12-17T10:51:12.632Z,37.00
2022-12-17T10:54:53.679Z,30.40
2022-12-17T10:58:46.587Z,32.77
2022-12-17T11:02:44.234Z,40.27
2022-12-17T11:06:25.545Z,37.33
2022-12-17T11:10:15.143Z,32.23
2022-12-17T11:14:03.391Z,34.43
2022-12-17T11:17:55.154Z,38.80
2022-12-17T11:21:52.082Z,32.03
2022-12-17T11:25:46.670Z,41.00
2022-12-17T11:29:33.191Z,37.73
2022-12-17T11:33:40.645Z,35.03
2022-12-17T11:37:39.992Z,35.23
2022-12-17T11:41:32.014Z,35.07
2022-12-17T11:45:53.988Z,36.73
2022-12-17T11:50:26.248Z,34.50
2022-12-17T11:54:45.475Z,39.37
2022-12-17T11:58:53.470Z,33.33
2022-12-17T12:02:52.201Z,28.87
2022-12-17T12:07:05.004Z,34.17
2022-12-17T12:11:10.452Z,36.17
2022-12-17T12:15:02.650Z,28.10
2022-12-17T12:19:06.334Z,41.13
2022-12-17T12:23:43.199Z,34.27
2022-12-17T12:27:45.382Z,36.70
2022-12-17T12:31:36.434Z,27.03
2022-12-17T12:35:23.314Z,29.33
2022-12-17T12:39:12.868Z,29.83
2022-12-17T12:43:14.358Z,32.50
2022-12-17T12:47:17.150Z,34.97
2022-12-17T12:51:41.735Z,31.30
2022-12-17T12:55:22.394Z,29.17
2022-12-17T12:59:02.671Z,30.77
2022-12-17T13:02:50.496Z,27.80
2022-12-17T13:06:36.373Z,31.33
2022-12-17T13:10:00.670Z,29.23
2022-12-17T13:13:26.429Z,24.77
2022-12-17T13:16:54.399Z,33.20
2022-12-17T13:20:34.982Z,31.17
2022-12-17T13:23:58.835Z,35.27
2022-12-17T13:27:33.754Z,30.10
2022-12-17T13:31:16.181Z,35.67
2022-12-17T13:35:20.408Z,22.93
2022-12-17T13:39:03.698Z,26.17
2022-12-17T13:42:36.327Z,22.07
2022-12-17T13:45:58.586Z,29.23
2022-12-17T13:49:29.874Z,17.57
2022-12-17T13:52:51.974Z,19.77
2022-12-17T13:56:15.670Z,29.90
2022-12-17T13:59:39.425Z,20.30
2022-12-17T14:03:11.931Z,16.83
2022-12-17T14:06:38.344Z,20.33
2022-12-17T14:10:00.585Z,28.73
2022-12-17T14:13:22.433Z,23.23
2022-12-17T14:16:50.619Z,19.13
2022-12-17T14:20:26.092Z,17.67
2022-12-17T14:23:51.251Z,30.00
2022-12-17T14:27:33.227Z,23.20
2022-12-17T14:31:28.156Z,29.10
2022-12-17T14:34:51.958Z,29.40
2022-12-17T14:38:37.445Z,22.70
2022-12-17T14:42:26.263Z,22.40
2022-12-17T14:46:19.266Z,27.23
2022-12-17T14:50:01.948Z,28.40
2022-12-17T14:53:27.562Z,29.73
2022-12-17T14:56:50.492Z,33.30
2022-12-17T15:00:13.721Z,25.40
2022-12-17T15:03:41.932Z,28.00
2022-12-17T15:07:09.049Z,22.77
2022-12-17T15:10:34.004Z,25.87
2022-12-17T15:13:57.036Z,32.53
2022-12-17T15:17:18.928Z,29.03
2022-12-17T15:20:40.879Z,30.43
2022-12-17T15:24:03.178Z,34.92
2022-12-17T15:27:24.963Z,34.67
2022-12-17T15:30:48.964Z,33.40
2022-12-17T15:34:12.232Z,33.67
2022-12-17T15:37:35.611Z,38.53
2022-12-17T15:41:01.017Z,34.83
2022-12-17T15:44:23.946Z,43.70
2022-12-17T15:47:45.751Z,30.97
2022-12-17T15:51:07.922Z,31.77
2022-12-17T15:54:29.814Z,33.57
2022-12-17T15:57:51.605Z,33.50
2022-12-17T16:01:13.719Z,36.63
2022-12-17T16:04:37.777Z,35.00
2022-12-17T16:08:02.232Z,32.70
2022-12-17T16:11:24.142Z,36.37
2022-12-17T16:14:47.025Z,33.43
2022-12-17T16:18:08.881Z,36.17
2022-12-17T16:21:30.696Z,41.37
2022-12-17T16:24:52.870Z,38.23
2022-12-17T16:28:14.768Z,34.90
2022-12-17T16:31:37.407Z,39.10
2022-12-17T16:35:00.745Z,34.07
2022-12-17T16:38:22.727Z,38.17
2022-12-17T16:41:45.507Z,36.00
2022-12-17T16:45:10.038Z,40.47
2022-12-17T16:48:39.585Z,48.72
2022-12-17T16:52:07.646Z,47.47
2022-12-17T16:55:31.917Z,52.43
2022-12-17T16:58:56.610Z,47.67
2022-12-17T17:02:18.758Z,38.00
2022-12-17T17:05:42.662Z,39.57
2022-12-17T17:09:05.515Z,43.13
2022-12-17T17:12:27.500Z,45.83
2022-12-17T17:15:49.723Z,37.73
2022-12-17T17:19:12.656Z,35.20
2022-12-17T17:22:35.639Z,44.47
2022-12-17T17:25:58.707Z,45.93
2022-12-17T17:29:20.894Z,44.70
2022-12-17T17:32:42.954Z,54.00
2022-12-17T17:36:06.936Z,41.23
2022-12-17T17:39:32.927Z,32.57
2022-12-17T17:42:54.722Z,42.70
2022-12-17T17:46:18.969Z,40.47
2022-12-17T17:49:40.863Z,43.27
2022-12-17T17:53:03.693Z,39.87
2022-12-17T17:56:33.527Z,35.63
2022-12-17T17:59:55.321Z,46.93
2022-12-17T18:03:17.546Z,34.37
2022-12-17T18:06:52.963Z,46.70
2022-12-17T18:10:26.036Z,36.50
2022-12-17T18:13:57.172Z,47.00
2022-12-17T18:17:18.977Z,41.07
2022-12-17T18:20:40.774Z,46.27
2022-12-17T18:24:07.747Z,42.57
2022-12-17T18:27:29.558Z,52.27
2022-12-17T18:30:51.427Z,56.53
2022-12-17T18:34:17.182Z,43.97
2022-12-17T18:37:39.231Z,52.87
2022-12-17T18:41:33.231Z,64.67
2022-12-17T18:44:55.340Z,42.13
2022-12-17T18:48:17.862Z,57.10
2022-12-17T18:51:43.596Z,42.47
2022-12-17T18:55:06.257Z,48.77
2022-12-17T18:58:28.167Z,44.63
2022-12-17T19:01:50.940Z,45.60
2022-12-17T19:05:12.895Z,47.97
2022-12-17T19:08:36.561Z,45.07
2022-12-17T19:11:58.891Z,46.27
2022-12-17T19:15:21.798Z,50.67
2022-12-17T19:18:45.011Z,57.03
2022-12-17T19:22:09.393Z,50.90
2022-12-17T19:25:31.270Z,45.57
2022-12-17T19:28:55.415Z,43.83
2022-12-17T19:32:17.921Z,45.87
2022-12-17T19:35:40.827Z,61.57
2022-12-17T19:39:07.219Z,53.87
2022-12-17T19:42:41.120Z,45.73
2022-12-17T19:46:06.533Z,42.50
2022-12-17T19:49:28.427Z,42.07
2022-12-17T19:52:52.575Z,39.10
2022-12-17T19:56:18.101Z,42.83
2022-12-17T19:59:47.938Z,39.43
2022-12-17T20:03:10.044Z,37.10
2022-12-17T20:06:34.907Z,61.95
2022-12-17T20:09:59.828Z,44.87
2022-12-17T20:13:21.670Z,65.60
2022-12-17T20:16:51.966Z,51.87
2022-12-17T20:20:15.134Z,43.07
2022-12-17T20:23:36.940Z,66.83
2022-12-17T20:27:12.884Z,51.17
2022-12-17T20:30:35.133Z,40.13
2022-12-17T20:33:58.617Z,44.53
2022-12-17T20:37:20.438Z,53.17
2022-12-17T20:40:43.288Z,44.07
2022-12-17T20:44:14.325Z,52.93
2022-12-17T20:47:36.147Z,43.93
2022-12-17T20:50:58.032Z,53.33
2022-12-17T20:54:21.969Z,64.40
2022-12-17T20:57:44.859Z,43.53
2022-12-17T21:01:11.462Z,44.43
2022-12-17T21:04:36.422Z,49.23
2022-12-17T21:07:58.351Z,40.97
2022-12-17T21:11:26.430Z,43.07
2022-12-17T21:14:49.449Z,36.83
2022-12-17T21:18:11.232Z,39.87
2022-12-17T21:21:37.344Z,32.50
2022-12-17T21:24:59.189Z,40.40
2022-12-17T21:28:23.998Z,42.67
2022-12-17T21:31:49.434Z,41.13
2022-12-17T21:35:11.517Z,43.77
2022-12-17T21:38:33.357Z,41.83
2022-12-17T21:42:13.928Z,47.67
2022-12-17T21:45:42.133Z,46.90
2022-12-17T21:49:08.133Z,39.03
2022-12-17T21:52:32.287Z,45.90
2022-12-17T21:56:07.876Z,38.13
2022-12-17T21:59:32.049Z,37.13
2022-12-17T22:02:54.177Z,36.73
2022-12-17T22:06:20.789Z,49.07
2022-12-17T22:10:26.748Z,42.93
2022-12-17T22:14:07.263Z,41.17
2022-12-17T22:17:41.731Z,38.37
2022-12-17T22:21:03.713Z,42.90
2022-12-17T22:24:36.433Z,31.90
2022-12-17T22:27:58.665Z,34.80
2022-12-17T22:31:40.964Z,34.20
2022-12-17T22:36:19.921Z,37.33
2022-12-17T22:41:38.507Z,34.87
2022-12-17T22:44:41.151Z,31.87
2022-12-17T22:46:30.316Z,38.33
2022-12-17T22:49:52.404Z,36.17
2022-12-17T22:53:15.071Z,35.63
2022-12-17T22:57:08.382Z,40.93
2022-12-17T23:00:26.659Z,32.60
2022-12-17T23:03:55.619Z,37.37
2022-12-17T23:07:31.904Z,40.43
2022-12-17T23:10:56.535Z,39.23
2022-12-17T23:14:18.670Z,32.17
2022-12-17T23:17:40.514Z,39.83
2022-12-17T23:21:19.023Z,35.00
2022-12-17T23:24:41.884Z,38.47
2022-12-17T23:28:06.781Z,35.13
2022-12-17T23:31:37.477Z,35.47
2022-12-17T23:34:59.350Z,38.87
2022-12-17T23:38:32.228Z,28.67
2022-12-17T23:41:56.925Z,35.43
2022-12-17T23:45:18.795Z,34.80
2022-12-17T23:48:45.545Z,39.10
2022-12-17T23:52:07.959Z,32.13
2022-12-17T23:55:41.675Z,32.13
2022-12-17T23:59:04.325Z,40.23
